Time;durP1;ratioP1;P1;durP2;ratioP2;P2;SDS_P1;SDS_P2;PMS_P1;PMS_P2;Temp;Humidity;BMP_temperature;BMP_pressure;BME280_temperature;BME280_humidity;BME280_pressure;Samples;Min_cycle;Max_cycle;Signal;HPM_P1;HPM_P2
2022/10/25 00:00:38;;;;;;;30.70;28.00;;;;;;;16.65;64.87;101046.66;4977461;28;20027;-74
2022/10/25 00:03:05;;;;;;;29.45;27.83;;;;;;;16.64;64.70;101049.69;4975956;28;20061;-74
2022/10/25 00:05:31;;;;;;;28.83;27.05;;;;;;;16.64;64.39;101052.41;4976839;28;20057;-74
2022/10/25 00:07:56;;;;;;;29.65;27.98;;;;;;;16.64;64.43;101060.59;4977242;28;20467;-79
2022/10/25 00:10:21;;;;;;;28.80;27.10;;;;;;;16.64;64.50;101055.13;4976180;28;20058;-75
2022/10/25 00:12:47;;;;;;;28.80;27.00;;;;;;;16.63;64.31;101056.22;4977184;28;20046;-74
2022/10/25 00:15:13;;;;;;;30.67;28.77;;;;;;;16.61;64.74;101056.50;4976841;28;20035;-74
2022/10/25 00:17:38;;;;;;;30.73;28.92;;;;;;;16.61;64.48;101061.94;4976909;28;20075;-76
2022/10/25 00:20:04;;;;;;;31.38;28.63;;;;;;;16.61;64.65;101061.16;4976800;28;20454;-73
2022/10/25 00:22:30;;;;;;;29.70;27.80;;;;;;;16.61;64.38;101070.13;4976763;28;20034;-74
2022/10/25 00:24:55;;;;;;;28.52;26.60;;;;;;;16.60;64.84;101064.94;4977292;28;20061;-74
2022/10/25 00:27:20;;;;;;;29.10;27.00;;;;;;;16.59;64.85;101061.41;4976606;28;20070;-76
2022/10/25 00:29:46;;;;;;;29.45;27.45;;;;;;;16.58;64.68;101065.25;4976669;28;20034;-75
2022/10/25 00:32:11;;;;;;;29.60;27.65;;;;;;;16.59;64.91;101064.13;4976291;28;20034;-73
2022/10/25 00:34:40;;;;;;;29.90;27.77;;;;;;;16.59;64.95;101066.06;4976812;28;20035;-75
2022/10/25 00:37:05;;;;;;;29.17;27.48;;;;;;;16.58;64.72;101064.41;4976988;28;20451;-75
2022/10/25 00:39:31;;;;;;;28.58;27.15;;;;;;;16.57;64.51;101071.75;4976447;28;20085;-76
2022/10/25 00:41:56;;;;;;;30.35;28.38;;;;;;;16.56;64.59;101064.69;4976949;28;20031;-73
2022/10/25 00:44:49;;;;;;;29.02;27.13;;;;;;;16.56;64.64;101066.59;4976846;28;20057;-74
2022/10/25 00:47:21;;;;;;;28.67;27.15;;;;;;;16.54;64.89;101072.31;4976209;28;20075;-75
2022/10/25 00:50:04;;;;;;;28.52;26.98;;;;;;;16.55;64.60;101073.13;4976746;28;20344;-77
2022/10/25 00:52:34;;;;;;;28.92;26.35;;;;;;;16.53;64.78;101069.84;4976821;28;20045;-74
2022/10/25 00:55:02;;;;;;;27.35;25.98;;;;;;;16.53;64.92;101072.59;4976498;28;20486;-74
2022/10/25 00:57:32;;;;;;;28.88;26.95;;;;;;;16.53;64.78;101075.31;4974769;28;20374;-74
2022/10/25 01:00:00;;;;;;;29.23;27.38;;;;;;;16.53;64.63;101072.59;4975607;28;20041;-75
2022/10/25 01:02:26;;;;;;;29.20;27.15;;;;;;;16.51;64.51;101078.34;4975938;28;20034;-76
2022/10/25 01:04:52;;;;;;;29.88;27.88;;;;;;;16.52;64.67;101079.16;4975241;28;20077;-74
2022/10/25 01:07:18;;;;;;;29.13;27.63;;;;;;;16.51;64.79;101075.59;4976150;28;20114;-75
2022/10/25 01:09:44;;;;;;;29.42;27.40;;;;;;;16.52;64.41;101084.59;4975844;28;20179;-76
2022/10/25 01:12:09;;;;;;;30.73;28.90;;;;;;;16.52;64.38;101081.88;4975767;28;20037;-74
2022/10/25 01:14:37;;;;;;;28.73;27.13;;;;;;;16.50;64.55;101090.31;4975584;28;20038;-76
2022/10/25 01:17:23;;;;;;;29.17;27.58;;;;;;;16.50;64.61;101089.50;4976058;28;20030;-78
2022/10/25 01:20:48;;;;;;;29.30;27.02;;;;;;;16.49;64.98;101090.59;4975517;28;20109;-75
2022/10/25 01:23:22;;;;;;;30.13;28.00;;;;;;;16.48;64.54;101091.69;4916492;29;20032;-73
2022/10/25 01:25:55;;;;;;;29.42;27.83;;;;;;;16.47;64.97;101098.25;4916210;29;20048;-76
2022/10/25 01:28:39;;;;;;;32.88;30.35;;;;;;;16.46;64.74;101088.44;4958247;28;20378;-73
2022/10/25 01:31:14;;;;;;;27.70;26.23;;;;;;;16.45;64.53;101090.31;4975549;28;20050;-79
2022/10/25 01:33:54;;;;;;;28.20;26.60;;;;;;;16.43;64.46;101092.53;4975794;28;20180;-73
2022/10/25 01:36:30;;;;;;;28.85;27.35;;;;;;;16.43;64.72;101092.53;4975923;28;20105;-75
2022/10/25 01:39:12;;;;;;;30.77;28.27;;;;;;;16.43;64.82;101103.44;4975749;28;20038;-75
2022/10/25 01:41:59;;;;;;;29.30;27.27;;;;;;;16.42;64.66;101099.88;4975347;28;20034;-76
2022/10/25 01:44:35;;;;;;;29.52;27.73;;;;;;;16.41;64.63;101098.25;4975198;28;20050;-74
2022/10/25 01:47:24;;;;;;;29.50;27.65;;;;;;;16.40;64.57;101107.53;4975312;28;20042;-74
2022/10/25 01:49:59;;;;;;;27.48;26.08;;;;;;;16.39;64.74;101108.59;4976075;28;20043;-75
2022/10/25 01:52:26;;;;;;;30.45;28.55;;;;;;;16.39;65.07;101105.88;4975623;28;20031;-75
2022/10/25 01:54:51;;;;;;;29.40;26.92;;;;;;;16.39;64.54;101116.78;4975093;28;20070;-74
2022/10/25 01:57:48;;;;;;;29.52;28.02;;;;;;;16.39;64.65;101110.50;4973739;28;20066;-76
2022/10/25 02:00:19;;;;;;;29.48;27.35;;;;;;;16.38;64.75;101119.78;4975211;28;20106;-73
2022/10/25 02:03:08;;;;;;;29.30;27.77;;;;;;;16.37;64.90;101120.88;4975101;28;20027;-74
2022/10/25 02:05:58;;;;;;;28.92;27.35;;;;;;;16.37;64.85;101123.59;4975034;28;20097;-75
2022/10/25 02:08:59;;;;;;;28.75;27.10;;;;;;;16.36;64.57;101127.41;4973957;28;20035;-76
2022/10/25 02:11:28;;;;;;;29.15;27.42;;;;;;;16.34;64.52;101115.97;4952251;28;20042;-76
2022/10/25 02:14:28;;;;;;;30.33;28.48;;;;;;;16.34;64.70;101124.13;4974942;28;20027;-74
2022/10/25 02:17:15;;;;;;;29.02;27.38;;;;;;;16.32;65.02;101123.59;4942050;28;20085;-76
2022/10/25 02:19:46;;;;;;;28.55;26.92;;;;;;;16.31;65.07;101130.94;4974827;28;20117;-76
2022/10/25 02:22:13;;;;;;;29.08;26.75;;;;;;;16.31;65.11;101132.88;4974744;28;20463;-77
2022/10/25 02:24:43;;;;;;;27.80;26.02;;;;;;;16.32;64.80;101132.56;4974853;28;20030;-76
2022/10/25 02:27:10;;;;;;;27.35;25.80;;;;;;;16.30;64.90;101126.56;4975266;28;20130;-76
2022/10/25 02:29:37;;;;;;;27.40;26.00;;;;;;;16.30;64.95;101128.50;4974668;28;20062;-75
2022/10/25 02:32:03;;;;;;;28.15;26.75;;;;;;;16.31;65.13;101132.88;4974707;28;20109;-74
2022/10/25 02:34:29;;;;;;;29.85;27.98;;;;;;;16.30;64.63;101131.22;4974596;28;20574;-75
2022/10/25 02:36:54;;;;;;;28.80;27.20;;;;;;;16.31;64.73;101135.59;4974408;28;20032;-76
2022/10/25 02:39:22;;;;;;;29.10;27.50;;;;;;;16.30;64.74;101140.19;4975025;28;20047;-75
2022/10/25 02:41:47;;;;;;;27.35;25.80;;;;;;;16.29;64.67;101144.03;4974561;28;20038;-75
2022/10/25 02:44:13;;;;;;;29.00;27.30;;;;;;;16.29;64.92;101143.22;4974533;28;20031;-80
2022/10/25 02:46:38;;;;;;;28.00;26.15;;;;;;;16.28;65.07;101142.41;4973512;28;20031;-75
2022/10/25 02:49:05;;;;;;;29.00;27.40;;;;;;;16.28;65.03;101142.41;4974386;28;20129;-74
2022/10/25 02:51:30;;;;;;;30.85;28.50;;;;;;;16.28;64.82;101133.38;4973203;28;20480;-75
2022/10/25 02:53:56;;;;;;;29.67;27.40;;;;;;;16.28;65.18;101141.56;4974243;28;20053;-74
2022/10/25 02:56:22;;;;;;;31.42;29.42;;;;;;;16.28;65.16;101139.69;4973752;28;20030;-77
2022/10/25 02:58:49;;;;;;;28.80;27.20;;;;;;;16.26;64.76;101139.13;4972869;28;20035;-75
2022/10/25 03:01:16;;;;;;;28.50;26.73;;;;;;;16.26;64.91;101139.13;4974300;28;20042;-79
2022/10/25 03:03:42;;;;;;;28.83;27.33;;;;;;;16.24;64.92;101135.84;4974285;28;20035;-74
2022/10/25 03:06:09;;;;;;;28.77;27.23;;;;;;;16.23;64.99;101143.22;4974573;28;20034;-77
2022/10/25 03:08:35;;;;;;;29.25;27.45;;;;;;;16.24;65.16;101149.47;4974471;28;20057;-76
2022/10/25 03:11:01;;;;;;;28.00;26.27;;;;;;;16.23;64.90;101156.03;4974324;28;20487;-76
2022/10/25 03:13:27;;;;;;;30.00;28.27;;;;;;;16.23;64.78;101158.75;4974525;28;20086;-75
2022/10/25 03:15:53;;;;;;;27.73;26.27;;;;;;;16.22;64.89;101154.38;4974336;28;20038;-77
2022/10/25 03:18:18;;;;;;;29.55;27.85;;;;;;;16.22;64.75;101154.38;4974181;28;20069;-77
2022/10/25 03:20:44;;;;;;;27.85;26.30;;;;;;;16.21;65.03;101161.75;4975702;28;20119;-74
2022/10/25 03:23:10;;;;;;;29.70;28.00;;;;;;;16.21;65.08;101163.66;4977677;28;20086;-76
2022/10/25 03:25:36;;;;;;;28.48;26.67;;;;;;;16.19;64.96;101169.38;4978474;28;20033;-80
2022/10/25 03:28:01;;;;;;;29.20;27.50;;;;;;;16.19;64.84;101172.09;4977821;28;20108;-75
2022/10/25 03:30:27;;;;;;;31.35;29.25;;;;;;;16.18;65.06;101167.75;4977834;28;20035;-74
2022/10/25 03:32:53;;;;;;;28.83;27.13;;;;;;;16.19;64.61;101177.53;4977911;28;20387;-73
2022/10/25 03:35:19;;;;;;;29.25;27.23;;;;;;;16.19;64.90;101179.44;4976438;28;20046;-76
2022/10/25 03:37:46;;;;;;;27.40;26.08;;;;;;;16.17;65.06;101173.44;4977705;28;20050;-73
2022/10/25 03:40:11;;;;;;;28.33;26.65;;;;;;;16.16;64.77;101183.53;4977889;28;20027;-75
2022/10/25 03:42:37;;;;;;;28.60;27.10;;;;;;;16.16;64.82;101191.72;4977708;28;20026;-74
2022/10/25 03:45:02;;;;;;;27.55;26.15;;;;;;;16.15;64.93;101198.25;4976361;28;20039;-75
2022/10/25 03:47:28;;;;;;;28.70;27.15;;;;;;;16.13;64.96;101194.97;4977412;28;20031;-75
2022/10/25 03:49:53;;;;;;;27.63;26.13;;;;;;;16.14;64.96;101198.53;4976787;28;20113;-75
2022/10/25 03:52:18;;;;;;;27.48;26.08;;;;;;;16.12;65.05;101195.25;4977018;28;20166;-80
2022/10/25 03:54:44;;;;;;;27.88;26.25;;;;;;;16.10;65.16;101203.69;4977643;28;20470;-74
2022/10/25 03:57:09;;;;;;;27.38;26.05;;;;;;;16.11;64.68;101196.34;4977854;28;20367;-74
2022/10/25 03:59:34;;;;;;;28.80;27.08;;;;;;;16.11;64.96;101199.06;4976539;28;20039;-76
2022/10/25 04:02:00;;;;;;;28.85;27.15;;;;;;;16.09;64.71;101193.88;4977451;28;20464;-75
2022/10/25 04:04:26;;;;;;;28.60;26.95;;;;;;;16.09;65.03;101198.50;4977070;28;20081;-74
2022/10/25 04:06:51;;;;;;;28.17;26.42;;;;;;;16.08;65.17;101203.16;4977065;28;20042;-75
2022/10/25 04:09:17;;;;;;;28.08;26.38;;;;;;;16.08;64.63;101205.88;4976699;28;20090;-73
2022/10/25 04:11:42;;;;;;;29.02;27.10;;;;;;;16.07;64.96;101206.94;4977231;28;20130;-73
2022/10/25 04:14:07;;;;;;;26.95;25.58;;;;;;;16.06;65.12;101208.03;4977047;28;20026;-78
2022/10/25 04:16:33;;;;;;;28.73;27.15;;;;;;;16.05;64.88;101206.41;4977126;28;20117;-75
2022/10/25 04:18:58;;;;;;;27.48;25.92;;;;;;;16.05;64.79;101216.47;4977465;28;20066;-73
2022/10/25 04:21:24;;;;;;;27.60;25.92;;;;;;;16.05;64.68;101227.38;4976829;28;20465;-74
2022/10/25 04:23:50;;;;;;;28.10;26.15;;;;;;;16.03;64.78;101219.47;4977360;28;20074;-74
2022/10/25 04:26:17;;;;;;;27.83;26.33;;;;;;;16.02;64.80;101229.53;4977463;28;20462;-74
2022/10/25 04:28:47;;;;;;;28.73;27.13;;;;;;;16.00;64.93;101220.84;4976805;28;20085;-75
2022/10/25 04:31:13;;;;;;;28.67;26.63;;;;;;;16.01;64.74;101225.19;4976772;28;20114;-75
2022/10/25 04:33:38;;;;;;;28.55;26.85;;;;;;;16.01;64.92;101229.81;4977038;28;20579;-74
2022/10/25 04:36:04;;;;;;;28.05;26.52;;;;;;;16.00;64.71;101226.28;4976680;28;20035;-74
2022/10/25 04:38:29;;;;;;;29.95;28.35;;;;;;;15.99;64.71;101224.63;4976335;28;20030;-75
2022/10/25 04:40:56;;;;;;;28.05;26.45;;;;;;;15.99;64.64;101232.00;4976483;28;20035;-74
2022/10/25 04:43:22;;;;;;;27.83;26.30;;;;;;;15.97;64.66;101217.81;4976443;28;20030;-77
2022/10/25 04:45:48;;;;;;;28.23;26.73;;;;;;;15.96;64.74;101225.16;4976338;28;20039;-75
2022/10/25 04:48:13;;;;;;;27.98;26.45;;;;;;;15.96;64.70;101236.06;4975911;28;20050;-75
2022/10/25 04:50:38;;;;;;;29.15;27.10;;;;;;;15.95;64.99;101236.31;4976006;28;20094;-73
2022/10/25 04:53:04;;;;;;;27.92;26.42;;;;;;;15.95;64.89;101236.31;4976251;28;20361;-76
2022/10/25 04:55:30;;;;;;;29.40;27.60;;;;;;;15.93;65.14;101238.53;4975650;28;20034;-74
2022/10/25 04:57:56;;;;;;;27.50;26.00;;;;;;;15.94;64.87;101248.31;4975450;28;20034;-73
2022/10/25 05:00:21;;;;;;;28.73;27.00;;;;;;;15.93;64.79;101244.78;4976068;28;20031;-74
2022/10/25 05:02:49;;;;;;;27.17;25.67;;;;;;;15.91;65.04;101246.94;4974687;28;20046;-74
2022/10/25 05:05:15;;;;;;;29.33;27.52;;;;;;;15.91;64.97;101248.84;4975309;28;20027;-74
2022/10/25 05:07:40;;;;;;;28.42;26.83;;;;;;;15.90;64.92;101253.50;4975550;28;20356;-74
2022/10/25 05:10:06;;;;;;;27.92;26.52;;;;;;;15.89;64.82;101257.28;4976130;28;20122;-77
2022/10/25 05:12:31;;;;;;;28.35;26.67;;;;;;;15.88;65.03;101260.28;4975528;28;20082;-73
2022/10/25 05:14:56;;;;;;;29.83;28.27;;;;;;;15.88;65.11;101265.75;4975614;28;20038;-81
2022/10/25 05:17:22;;;;;;;27.80;26.02;;;;;;;15.87;64.66;101273.06;4975755;28;20098;-75
2022/10/25 05:19:47;;;;;;;28.50;26.30;;;;;;;15.87;65.09;101266.81;4976003;28;20576;-74
2022/10/25 05:22:12;;;;;;;28.88;27.05;;;;;;;15.86;64.81;101259.72;4975986;28;20034;-74
2022/10/25 05:24:38;;;;;;;30.13;28.20;;;;;;;15.84;65.01;101262.72;4975665;28;20085;-75
2022/10/25 05:27:03;;;;;;;30.63;28.27;;;;;;;15.83;64.97;101271.97;4975639;28;20031;-75
2022/10/25 05:29:29;;;;;;;27.17;25.38;;;;;;;15.82;64.77;101269.50;4975662;28;20046;-74
2022/10/25 05:31:54;;;;;;;27.98;26.23;;;;;;;15.82;65.13;101266.78;4975550;28;20039;-75
2022/10/25 05:34:19;;;;;;;27.83;26.30;;;;;;;15.81;64.84;101271.41;4975453;28;20043;-73
2022/10/25 05:36:45;;;;;;;27.60;26.10;;;;;;;15.80;65.14;101277.97;4975112;28;20033;-75
2022/10/25 05:39:10;;;;;;;27.42;25.90;;;;;;;15.79;64.98;101285.28;4975679;28;20043;-76
2022/10/25 05:41:36;;;;;;;28.98;27.42;;;;;;;15.79;65.01;101285.28;4975323;28;20459;-74
2022/10/25 05:44:01;;;;;;;27.90;26.42;;;;;;;15.78;64.79;101291.84;4975294;28;20415;-73
2022/10/25 05:46:27;;;;;;;28.02;26.23;;;;;;;15.77;64.67;101292.94;4975736;28;20375;-73
2022/10/25 05:48:52;;;;;;;28.90;27.40;;;;;;;15.76;64.60;101302.16;4975199;28;20126;-74
2022/10/25 05:51:26;;;;;;;27.60;26.20;;;;;;;15.76;65.11;101301.34;4974956;28;20042;-73
2022/10/25 05:53:54;;;;;;;27.63;25.92;;;;;;;15.74;65.04;101298.06;4975137;28;20031;-74
2022/10/25 05:56:21;;;;;;;28.93;27.10;;;;;;;15.73;65.12;101291.81;4975460;28;20117;-75
2022/10/25 05:58:47;;;;;;;28.85;27.10;;;;;;;15.72;64.84;101301.06;4973775;28;20063;-74
2022/10/25 06:01:15;;;;;;;28.08;26.30;;;;;;;15.72;64.90;101305.69;4975329;28;20081;-74
2022/10/25 06:03:41;;;;;;;27.88;26.20;;;;;;;15.71;64.78;101306.78;4975027;28;20041;-74
2022/10/25 06:06:08;;;;;;;28.55;26.60;;;;;;;15.69;64.96;101304.28;4975264;28;20467;-75
2022/10/25 06:08:34;;;;;;;27.98;26.25;;;;;;;15.70;65.33;101316.00;4974752;28;20037;-76
2022/10/25 06:11:05;;;;;;;29.08;26.77;;;;;;;15.69;65.33;101320.63;4973899;28;20034;-80
2022/10/25 06:13:31;;;;;;;28.13;26.42;;;;;;;15.69;65.28;101317.06;4974803;28;20150;-78
2022/10/25 06:15:56;;;;;;;27.33;25.73;;;;;;;15.69;65.20;101317.06;4974351;28;20457;-73
2022/10/25 06:18:22;;;;;;;26.42;24.92;;;;;;;15.67;65.00;101317.31;4974838;28;20034;-73
2022/10/25 06:20:48;;;;;;;30.63;28.08;;;;;;;15.67;65.37;101327.41;4974466;28;20046;-73
2022/10/25 06:23:13;;;;;;;27.00;25.45;;;;;;;15.66;65.35;101332.03;4975067;28;20063;-73
2022/10/25 06:25:39;;;;;;;29.35;27.63;;;;;;;15.65;64.96;101337.72;4975114;28;20069;-73
2022/10/25 06:28:05;;;;;;;26.73;25.35;;;;;;;15.65;65.11;101322.22;4974756;28;20035;-74
2022/10/25 06:30:31;;;;;;;28.50;26.83;;;;;;;15.66;64.91;101328.50;4974674;28;20131;-74
2022/10/25 06:32:57;;;;;;;29.80;27.42;;;;;;;15.64;65.06;101323.28;4974303;28;20035;-74
2022/10/25 06:35:22;;;;;;;28.25;26.55;;;;;;;15.64;65.17;101319.75;4974647;28;20364;-73
2022/10/25 06:37:48;;;;;;;28.00;26.50;;;;;;;15.64;65.08;101333.38;4974613;28;20094;-74
2022/10/25 06:40:13;;;;;;;27.98;26.17;;;;;;;15.63;64.97;101332.56;4973404;28;20038;-72
2022/10/25 06:42:38;;;;;;;28.45;26.80;;;;;;;15.62;65.28;101332.81;4973782;28;20039;-74
2022/10/25 06:45:04;;;;;;;27.58;26.02;;;;;;;15.61;65.17;101323.81;4973830;28;20122;-72
2022/10/25 06:47:30;;;;;;;29.23;27.38;;;;;;;15.61;65.03;101328.47;4973239;28;20031;-73
2022/10/25 06:49:55;;;;;;;27.52;26.02;;;;;;;15.60;65.26;101330.38;4975173;28;20051;-73
2022/10/25 06:52:20;;;;;;;27.63;25.77;;;;;;;15.61;65.22;101336.63;4973758;28;20049;-74
2022/10/25 06:54:46;;;;;;;29.75;27.63;;;;;;;15.58;65.10;101341.50;4974688;28;20039;-73
2022/10/25 06:57:11;;;;;;;27.50;25.92;;;;;;;15.59;65.15;101345.88;4978885;28;20503;-73
2022/10/25 06:59:36;;;;;;;27.90;26.23;;;;;;;15.59;65.22;101355.94;4978531;28;20050;-79
2022/10/25 07:02:02;;;;;;;28.80;27.00;;;;;;;15.57;65.12;101358.94;4978293;28;20134;-73
2022/10/25 07:04:31;;;;;;;28.67;26.85;;;;;;;15.58;65.00;101357.03;4978517;28;20031;-76
2022/10/25 07:06:57;;;;;;;29.05;26.92;;;;;;;15.57;65.12;101361.66;4978140;28;20481;-74
2022/10/25 07:09:24;;;;;;;28.23;26.50;;;;;;;15.57;64.87;101367.13;4977116;28;20066;-72
2022/10/25 07:11:49;;;;;;;28.48;26.73;;;;;;;15.57;65.33;101364.38;4978022;28;20031;-73
2022/10/25 07:14:15;;;;;;;28.30;26.67;;;;;;;15.56;65.17;101370.91;4978062;28;20523;-75
2022/10/25 07:16:40;;;;;;;28.90;26.95;;;;;;;15.56;65.37;101379.06;4977861;28;20082;-74
2022/10/25 07:19:05;;;;;;;27.42;26.00;;;;;;;15.55;64.85;101374.72;4977965;28;20039;-74
2022/10/25 07:21:32;;;;;;;29.65;27.45;;;;;;;15.56;64.91;101376.34;4977907;28;20038;-74
2022/10/25 07:23:57;;;;;;;27.58;25.88;;;;;;;15.56;64.92;101378.25;4977522;28;20403;-73
2022/10/25 07:26:28;;;;;;;30.05;28.23;;;;;;;15.55;65.15;101379.34;4977826;28;20027;-73
2022/10/25 07:28:55;;;;;;;28.50;26.90;;;;;;;15.55;65.25;101382.88;4977710;28;20109;-74
2022/10/25 07:31:24;;;;;;;28.63;27.02;;;;;;;15.55;65.15;101388.34;4977495;28;20059;-73
2022/10/25 07:33:51;;;;;;;32.08;29.48;;;;;;;15.55;65.05;101382.06;4976322;28;20161;-73
2022/10/25 07:36:17;;;;;;;29.50;27.60;;;;;;;15.54;65.03;101386.66;4977617;28;20038;-73
2022/10/25 07:38:43;;;;;;;28.00;26.45;;;;;;;15.54;65.29;101385.84;4977544;28;20193;-75
2022/10/25 07:41:09;;;;;;;31.90;29.67;;;;;;;15.54;65.32;101385.84;4977320;28;20443;-73
2022/10/25 07:43:35;;;;;;;32.10;29.52;;;;;;;15.54;65.20;101389.41;4976562;28;20064;-73
2022/10/25 07:46:01;;;;;;;29.55;27.70;;;;;;;15.54;65.44;101394.84;4977660;28;20027;-75
2022/10/25 07:48:26;;;;;;;29.55;27.25;;;;;;;15.55;65.09;101390.25;4977124;28;20122;-73
2022/10/25 07:50:52;;;;;;;30.02;27.33;;;;;;;15.55;65.20;101396.50;4977723;28;20406;-74
2022/10/25 07:53:17;;;;;;;29.33;27.17;;;;;;;15.55;65.42;101390.25;4976829;28;20069;-73
2022/10/25 07:55:51;;;;;;;29.98;28.05;;;;;;;15.54;65.25;101388.56;4977131;28;20038;-74
2022/10/25 07:58:17;;;;;;;30.05;27.73;;;;;;;15.54;65.01;101394.03;4977106;28;20027;-73
2022/10/25 08:00:42;;;;;;;28.25;26.55;;;;;;;15.54;65.38;101404.91;4976671;28;20031;-77
2022/10/25 08:03:08;;;;;;;27.42;25.80;;;;;;;15.53;65.01;101409.53;4976894;28;20522;-73
2022/10/25 08:05:33;;;;;;;29.27;27.50;;;;;;;15.53;65.23;101411.47;4976386;28;20038;-73
2022/10/25 08:07:59;;;;;;;31.02;29.13;;;;;;;15.53;65.51;101403.28;4977149;28;20055;-73
2022/10/25 08:10:24;;;;;;;30.23;28.15;;;;;;;15.53;65.13;101412.28;4976169;28;20113;-73
2022/10/25 08:12:50;;;;;;;29.10;27.08;;;;;;;15.53;65.31;101420.44;4977223;28;20031;-73
2022/10/25 08:15:16;;;;;;;31.48;28.88;;;;;;;15.54;64.93;101418.53;4976709;28;20070;-74
2022/10/25 08:17:41;;;;;;;30.23;28.27;;;;;;;15.55;65.31;101422.91;4976760;28;20077;-74
2022/10/25 08:20:07;;;;;;;30.23;28.00;;;;;;;15.54;65.43;101416.63;4976527;28;20070;-74
2022/10/25 08:22:32;;;;;;;28.55;26.52;;;;;;;15.53;65.40;101414.19;4976657;28;20035;-73
2022/10/25 08:24:59;;;;;;;31.08;28.88;;;;;;;15.54;65.38;101419.34;4976173;28;20368;-74
2022/10/25 08:27:24;;;;;;;28.52;26.50;;;;;;;15.53;65.69;101425.88;4976500;28;20039;-74
2022/10/25 08:29:50;;;;;;;29.70;27.38;;;;;;;15.54;65.25;101426.69;4976817;28;20038;-73
2022/10/25 08:32:15;;;;;;;28.60;26.90;;;;;;;15.54;65.30;101423.97;4976447;28;20038;-72
2022/10/25 08:34:40;;;;;;;30.67;28.52;;;;;;;15.53;65.20;101427.78;4975671;28;20383;-73
2022/10/25 08:37:06;;;;;;;30.00;27.40;;;;;;;15.54;65.29;101424.78;4976561;28;20054;-75
2022/10/25 08:39:31;;;;;;;27.75;26.33;;;;;;;15.54;65.51;101421.25;4976338;28;20391;-74
2022/10/25 08:41:59;;;;;;;29.52;27.70;;;;;;;15.53;65.56;101425.88;4975295;28;20098;-74
2022/10/25 08:44:53;;;;;;;30.53;28.30;;;;;;;15.54;65.79;101424.78;4976207;28;20057;-73
2022/10/25 08:47:26;;;;;;;28.92;27.23;;;;;;;15.54;65.41;101438.41;4976426;28;20448;-73
2022/10/25 08:49:56;;;;;;;29.42;27.15;;;;;;;15.54;65.61;101438.41;4975689;28;20058;-73
2022/10/25 08:52:48;;;;;;;28.13;26.40;;;;;;;15.55;65.40;101442.78;4976611;28;20042;-73
2022/10/25 08:55:25;;;;;;;29.38;27.58;;;;;;;15.56;65.41;101443.59;4969738;28;20086;-72
2022/10/25 08:57:51;;;;;;;30.23;28.17;;;;;;;15.55;65.54;101448.25;4976233;28;20110;-73
2022/10/25 09:00:22;;;;;;;31.25;28.95;;;;;;;15.56;65.71;101452.59;4975817;28;20045;-73
2022/10/25 09:02:52;;;;;;;29.55;27.08;;;;;;;15.57;65.63;101453.41;4975676;28;20031;-73
2022/10/25 09:05:55;;;;;;;31.67;29.38;;;;;;;15.57;65.72;101451.53;4975861;28;20141;-72
2022/10/25 09:08:47;;;;;;;30.20;28.40;;;;;;;15.58;65.27;101460.50;4972493;28;20043;-75
2022/10/25 09:11:38;;;;;;;30.77;28.63;;;;;;;15.58;65.97;101465.97;4975783;28;20046;-72
2022/10/25 09:14:16;;;;;;;27.92;26.15;;;;;;;15.58;65.74;101461.31;4953085;28;20118;-72
2022/10/25 09:16:50;;;;;;;30.38;28.30;;;;;;;15.59;65.52;101464.88;4976122;28;20031;-73
2022/10/25 09:19:50;;;;;;;30.55;28.25;;;;;;;15.60;65.83;101466.53;4975113;28;20026;-76
2022/10/25 09:22:28;;;;;;;29.83;28.10;;;;;;;15.62;65.52;101467.06;4976201;28;20030;-76
2022/10/25 09:24:58;;;;;;;30.05;27.98;;;;;;;15.63;65.84;101471.44;4976217;28;20031;-75
2022/10/25 09:27:46;;;;;;;27.90;26.02;;;;;;;15.64;65.84;101475.81;4975347;28;20459;-73
2022/10/25 09:30:12;;;;;;;27.48;25.85;;;;;;;15.65;65.84;101474.75;4975646;28;20038;-74
2022/10/25 09:32:51;;;;;;;30.35;27.92;;;;;;;15.66;65.93;101478.28;4975607;28;20042;-73
2022/10/25 09:35:21;;;;;;;32.80;30.35;;;;;;;15.69;66.28;101488.66;4975811;28;20034;-71
2022/10/25 09:37:51;;;;;;;29.60;26.98;;;;;;;15.69;66.12;101488.66;4975537;28;20026;-74
2022/10/25 09:40:44;;;;;;;28.98;27.13;;;;;;;15.68;65.84;101496.00;4975948;28;20023;-73
2022/10/25 09:43:17;;;;;;;29.23;26.73;;;;;;;15.69;66.03;101489.50;4975381;28;20038;-72
2022/10/25 09:45:47;;;;;;;29.40;27.45;;;;;;;15.68;66.12;101490.56;4975410;28;20086;-73
2022/10/25 09:48:28;;;;;;;27.17;25.77;;;;;;;15.69;66.09;101486.78;4974918;28;20455;-72
2022/10/25 09:51:09;;;;;;;30.38;27.70;;;;;;;15.71;65.89;101495.50;4975676;28;20467;-73
2022/10/25 09:53:39;;;;;;;28.92;27.23;;;;;;;15.70;65.79;101498.50;4975727;28;20423;-72
2022/10/25 09:56:05;;;;;;;30.05;27.83;;;;;;;15.71;66.34;101498.25;4975606;28;20054;-72
2022/10/25 09:58:38;;;;;;;30.02;28.00;;;;;;;15.73;65.83;101495.28;4975065;28;20471;-73
2022/10/25 10:01:07;;;;;;;30.30;28.50;;;;;;;15.73;66.06;101490.63;4975315;28;20027;-73
2022/10/25 10:03:35;;;;;;;30.30;27.63;;;;;;;15.74;65.81;101494.19;4974789;28;20035;-73
2022/10/25 10:06:03;;;;;;;30.25;28.23;;;;;;;15.74;65.95;101492.25;4974893;28;20023;-73
2022/10/25 10:08:33;;;;;;;29.15;27.08;;;;;;;15.76;65.79;101500.19;4974516;28;20103;-73
2022/10/25 10:10:59;;;;;;;30.02;27.92;;;;;;;15.78;66.13;101498.84;4974950;28;20030;-73
2022/10/25 10:13:43;;;;;;;30.77;28.58;;;;;;;15.77;65.62;101499.94;4975164;28;20034;-71
2022/10/25 10:16:42;;;;;;;29.20;27.45;;;;;;;15.78;66.49;101498.84;4974886;28;20062;-73
2022/10/25 10:19:31;;;;;;;32.40;29.35;;;;;;;15.80;66.41;101501.31;4975068;28;20026;-75
2022/10/25 10:22:05;;;;;;;28.55;26.85;;;;;;;15.82;66.34;101501.88;4975541;28;20035;-74
2022/10/25 10:24:36;;;;;;;28.27;26.33;;;;;;;15.82;66.13;101510.03;4974547;28;20030;-76
2022/10/25 10:27:06;;;;;;;29.30;27.58;;;;;;;15.84;66.02;101507.88;4974916;28;20038;-73
2022/10/25 10:30:00;;;;;;;28.30;26.67;;;;;;;15.86;65.96;101518.53;4974386;28;20392;-72
2022/10/25 10:32:30;;;;;;;28.83;27.02;;;;;;;15.86;65.81;101519.34;4974495;28;20101;-72
2022/10/25 10:34:57;;;;;;;28.45;26.95;;;;;;;15.87;66.19;101522.88;4974180;28;20419;-72
2022/10/25 10:37:30;;;;;;;30.40;28.02;;;;;;;15.88;65.71;101522.66;4974453;28;20479;-72
2022/10/25 10:39:56;;;;;;;29.80;28.00;;;;;;;15.89;66.00;101534.34;4974320;28;20030;-74
2022/10/25 10:42:22;;;;;;;28.92;26.92;;;;;;;15.90;65.77;101525.94;4974344;28;20046;-74
2022/10/25 10:45:07;;;;;;;29.85;28.13;;;;;;;15.92;65.90;101534.66;4974032;28;20089;-73
2022/10/25 10:47:49;;;;;;;29.05;27.35;;;;;;;15.93;66.30;101533.59;4963341;28;20475;-74
2022/10/25 10:50:24;;;;;;;28.63;26.70;;;;;;;15.94;65.74;101524.31;4974767;28;20058;-74
2022/10/25 10:52:59;;;;;;;28.20;26.30;;;;;;;15.95;65.87;101528.69;4974313;28;20037;-74
2022/10/25 10:55:45;;;;;;;29.15;27.23;;;;;;;15.97;66.17;101522.97;4973163;28;20105;-74
2022/10/25 10:58:16;;;;;;;29.48;27.67;;;;;;;15.97;66.07;101514.81;4974590;28;20031;-73
2022/10/25 11:00:52;;;;;;;29.20;27.48;;;;;;;15.98;65.92;101519.19;4974413;28;20430;-73
2022/10/25 11:03:38;;;;;;;29.95;27.52;;;;;;;15.99;65.90;101521.63;4973916;28;20035;-74
2022/10/25 11:06:26;;;;;;;29.13;27.42;;;;;;;16.01;65.85;101518.66;4974194;28;20485;-73
2022/10/25 11:09:11;;;;;;;28.95;27.08;;;;;;;16.01;66.22;101519.47;4974179;28;20027;-73
2022/10/25 11:11:37;;;;;;;30.90;28.98;;;;;;;16.04;65.80;101520.03;4974368;28;20126;-74
2022/10/25 11:14:10;;;;;;;30.90;29.05;;;;;;;16.04;66.03;101518.13;4974121;28;20041;-71
2022/10/25 11:16:48;;;;;;;32.05;29.88;;;;;;;16.06;65.83;101512.44;4973126;28;20058;-72
2022/10/25 11:19:19;;;;;;;32.58;29.98;;;;;;;16.06;65.79;101524.16;4974063;28;20038;-71
2022/10/25 11:22:12;;;;;;;29.35;27.70;;;;;;;16.07;66.11;101525.78;4974341;28;20026;-73